createdAt,value
2022-09-16T00:01:40.752Z,84.44
2022-09-16T00:04:08.747Z,84.59
2022-09-16T00:06:36.703Z,84.54
2022-09-16T00:09:04.871Z,84.42
2022-09-16T00:11:34.795Z,84.91
2022-09-16T00:14:03.159Z,84.93
2022-09-16T00:16:31.406Z,84.97
2022-09-16T00:19:01.954Z,84.97
2022-09-16T00:21:30.596Z,85.61
2022-09-16T00:23:58.785Z,85.25
2022-09-16T00:26:26.959Z,85.60
2022-09-16T00:28:55.150Z,85.49
2022-09-16T00:31:23.314Z,85.18
2022-09-16T00:33:51.369Z,85.65
2022-09-16T00:36:21.183Z,85.51
2022-09-16T00:38:52.133Z,85.46
2022-09-16T00:41:21.373Z,85.20
2022-09-16T00:43:55.906Z,85.28
2022-09-16T00:46:28.004Z,84.99
2022-09-16T00:48:56.078Z,85.43
2022-09-16T00:51:26.032Z,85.64
2022-09-16T00:53:57.939Z,85.56
2022-09-16T00:56:27.386Z,85.43
2022-09-16T00:59:02.459Z,85.66
2022-09-16T01:01:30.972Z,85.33
2022-09-16T01:04:01.775Z,85.36
2022-09-16T01:06:32.256Z,85.56
2022-09-16T01:09:00.823Z,85.11
2022-09-16T01:11:29.402Z,86.09
2022-09-16T01:14:18.471Z,85.81
2022-09-16T01:16:50.547Z,86.08
2022-09-16T01:19:33.369Z,86.44
2022-09-16T01:22:11.576Z,86.09
2022-09-16T01:24:50.502Z,86.19
2022-09-16T01:27:40.644Z,86.41
2022-09-16T01:30:32.482Z,86.80
2022-09-16T01:33:05.044Z,86.37
2022-09-16T01:35:47.314Z,86.23
2022-09-16T01:38:31.009Z,85.99
2022-09-16T01:41:02.306Z,86.35
2022-09-16T01:43:39.263Z,86.20
2022-09-16T01:46:18.047Z,86.16
2022-09-16T01:48:53.844Z,86.20
2022-09-16T01:51:26.975Z,86.19
2022-09-16T01:54:03.732Z,86.10
2022-09-16T01:56:34.289Z,86.30
2022-09-16T01:59:06.437Z,86.39
2022-09-16T02:01:37.996Z,86.58
2022-09-16T02:04:09.882Z,86.17
2022-09-16T02:06:39.442Z,86.34
2022-09-16T02:09:10.746Z,86.10
2022-09-16T02:11:39.507Z,86.34
2022-09-16T02:14:10.539Z,86.19
2022-09-16T02:16:43.360Z,85.68
2022-09-16T02:19:14.220Z,85.88
2022-09-16T02:21:45.905Z,86.19
2022-09-16T02:24:17.565Z,85.87
2022-09-16T02:26:48.570Z,86.03
2022-09-16T02:29:19.198Z,86.02
2022-09-16T02:31:51.290Z,86.36
2022-09-16T02:34:48.871Z,86.11
2022-09-16T02:37:20.276Z,85.89
2022-09-16T02:39:51.250Z,86.54
2022-09-16T02:42:19.321Z,86.40
2022-09-16T02:44:47.864Z,85.89
2022-09-16T02:47:23.310Z,86.42
2022-09-16T02:49:54.776Z,85.98
2022-09-16T02:52:26.550Z,86.54
2022-09-16T02:54:57.908Z,86.25
2022-09-16T02:57:25.955Z,86.53
2022-09-16T02:59:54.762Z,86.54
2022-09-16T03:02:24.362Z,86.42
2022-09-16T03:04:52.478Z,86.44
2022-09-16T03:07:20.487Z,86.86
2022-09-16T03:09:49.291Z,86.55
2022-09-16T03:12:29.648Z,86.68
2022-09-16T03:15:11.623Z,85.98
2022-09-16T03:17:52.588Z,85.95
2022-09-16T03:20:24.580Z,86.67
2022-09-16T03:22:56.963Z,86.55
2022-09-16T03:25:34.455Z,86.40
2022-09-16T03:28:06.314Z,86.71
2022-09-16T03:30:37.233Z,87.54
2022-09-16T03:33:10.876Z,87.43
2022-09-16T03:35:41.950Z,87.36
2022-09-16T03:38:10.300Z,87.09
2022-09-16T03:40:38.739Z,87.46
2022-09-16T03:43:11.994Z,86.55
2022-09-16T03:45:42.722Z,87.19
2022-09-16T03:48:13.026Z,87.05
2022-09-16T03:50:41.762Z,87.11
2022-09-16T03:53:10.002Z,87.64
2022-09-16T03:55:38.081Z,87.10
2022-09-16T03:58:06.119Z,87.03
2022-09-16T04:00:34.185Z,87.02
2022-09-16T04:03:03.367Z,86.79
2022-09-16T04:05:32.811Z,86.95
2022-09-16T04:08:00.789Z,87.27
2022-09-16T04:10:28.792Z,87.07
2022-09-16T04:12:58.630Z,87.19
2022-09-16T04:15:26.752Z,86.96
2022-09-16T04:17:56.208Z,86.87
2022-09-16T04:20:24.876Z,87.44
2022-09-16T04:22:54.271Z,86.97
2022-09-16T04:25:22.330Z,87.13
2022-09-16T04:27:50.355Z,86.53
2022-09-16T04:30:18.815Z,86.07
2022-09-16T04:32:46.904Z,86.20
2022-09-16T04:35:44.560Z,86.72
2022-09-16T04:38:14.085Z,86.42
2022-09-16T04:40:42.092Z,86.71
2022-09-16T04:43:10.275Z,86.91
2022-09-16T04:45:38.313Z,87.05
2022-09-16T04:48:06.387Z,87.68
2022-09-16T04:50:34.389Z,87.48
2022-09-16T04:53:02.404Z,87.60
2022-09-16T04:55:32.379Z,87.08
2022-09-16T04:58:00.570Z,87.20
2022-09-16T05:00:28.547Z,87.03
2022-09-16T05:02:56.599Z,86.90
2022-09-16T05:05:24.606Z,86.58
2022-09-16T05:07:53.749Z,86.86
2022-09-16T05:10:21.726Z,86.47
2022-09-16T05:12:53.445Z,86.17
2022-09-16T05:15:21.761Z,86.45
2022-09-16T05:17:51.685Z,86.65
2022-09-16T05:20:20.410Z,86.49
2022-09-16T05:22:51.078Z,86.35
2022-09-16T05:25:19.244Z,86.45
2022-09-16T05:27:47.250Z,87.00
2022-09-16T05:30:17.409Z,86.54
2022-09-16T05:32:45.502Z,86.68
2022-09-16T05:35:13.803Z,86.47
2022-09-16T05:37:41.803Z,87.04
2022-09-16T05:40:10.403Z,86.67
2022-09-16T05:42:38.498Z,86.67
2022-09-16T05:45:07.820Z,86.69
2022-09-16T05:47:37.230Z,86.69
2022-09-16T05:50:05.841Z,86.41
2022-09-16T05:52:33.828Z,86.12
2022-09-16T05:55:01.828Z,86.19
2022-09-16T05:57:29.907Z,85.93
2022-09-16T05:59:59.427Z,85.44
2022-09-16T06:02:27.542Z,85.68
2022-09-16T06:04:57.054Z,85.72
2022-09-16T06:07:25.103Z,85.90
2022-09-16T06:09:53.171Z,86.37
2022-09-16T06:12:21.209Z,85.78
2022-09-16T06:14:49.305Z,86.10
2022-09-16T06:17:17.818Z,86.31
2022-09-16T06:19:46.184Z,85.91
2022-09-16T06:22:15.568Z,86.74
2022-09-16T06:24:43.567Z,86.92
2022-09-16T06:27:11.541Z,85.85
2022-09-16T06:29:39.617Z,86.63
2022-09-16T06:32:07.693Z,85.89
2022-09-16T06:34:35.701Z,85.63
2022-09-16T06:37:03.730Z,85.98
2022-09-16T06:39:33.107Z,86.08
2022-09-16T06:42:01.120Z,85.71
2022-09-16T06:44:41.477Z,85.05
2022-09-16T06:47:09.553Z,85.01
2022-09-16T06:49:37.542Z,85.49
2022-09-16T06:52:09.533Z,85.27
2022-09-16T06:54:38.975Z,85.19
2022-09-16T06:57:12.013Z,85.71
2022-09-16T06:59:40.412Z,85.12
2022-09-16T07:02:10.158Z,85.29
2022-09-16T07:04:38.230Z,85.59
2022-09-16T07:07:09.666Z,84.63
2022-09-16T07:09:39.936Z,85.04
2022-09-16T07:12:08.913Z,84.86
2022-09-16T07:14:37.072Z,85.09
2022-09-16T07:17:05.180Z,84.86
2022-09-16T07:19:33.291Z,85.26
2022-09-16T07:22:01.319Z,85.10
2022-09-16T07:24:29.358Z,85.25
2022-09-16T07:26:58.768Z,84.46
2022-09-16T07:29:27.674Z,84.21
2022-09-16T07:31:55.754Z,84.41
2022-09-16T07:34:23.803Z,84.45
2022-09-16T07:36:52.067Z,84.21
2022-09-16T07:39:21.234Z,83.62
2022-09-16T07:41:49.537Z,83.23
2022-09-16T07:44:20.060Z,83.69
2022-09-16T07:46:48.438Z,83.08
2022-09-16T07:49:17.197Z,83.48
2022-09-16T07:51:45.550Z,83.69
2022-09-16T07:54:15.006Z,83.92
2022-09-16T07:56:44.280Z,83.61
2022-09-16T07:59:17.721Z,83.63
2022-09-16T08:01:49.165Z,83.96
2022-09-16T08:04:18.358Z,83.75
2022-09-16T08:06:46.644Z,83.50
2022-09-16T08:09:38.717Z,83.34
2022-09-16T08:12:05.733Z,83.34
2022-09-16T08:14:33.927Z,83.16
2022-09-16T08:17:03.482Z,82.95
2022-09-16T08:19:31.592Z,83.20
2022-09-16T08:21:59.599Z,83.10
2022-09-16T08:24:27.735Z,82.78
2022-09-16T08:29:25.901Z,82.53
2022-09-16T08:31:54.068Z,81.43
2022-09-16T08:34:23.671Z,81.59
2022-09-16T08:36:51.776Z,81.16
2022-09-16T08:39:20.990Z,81.99
2022-09-16T08:42:06.621Z,81.21
2022-09-16T08:44:42.047Z,80.79
2022-09-16T08:47:16.605Z,80.79
2022-09-16T08:49:47.511Z,80.01
2022-09-16T08:52:20.162Z,78.56
2022-09-16T08:54:50.944Z,78.11
2022-09-16T08:57:23.945Z,78.89
2022-09-16T08:59:56.067Z,78.08
2022-09-16T09:02:30.309Z,78.36
2022-09-16T09:05:00.200Z,73.21
2022-09-16T09:07:35.120Z,74.98
2022-09-16T09:10:10.213Z,74.49
2022-09-16T09:12:42.370Z,73.48
2022-09-16T09:15:28.401Z,74.50
2022-09-16T09:18:06.107Z,74.57
2022-09-16T09:20:44.414Z,74.86
2022-09-16T09:23:25.696Z,73.64
2022-09-16T09:25:59.416Z,73.28
2022-09-16T09:28:56.698Z,73.69
2022-09-16T09:31:30.566Z,72.77
2022-09-16T09:34:03.928Z,71.03
2022-09-16T09:36:46.789Z,68.61
2022-09-16T09:39:44.198Z,70.07
2022-09-16T09:42:17.792Z,69.11
2022-09-16T09:44:51.884Z,71.16
2022-09-16T09:47:24.034Z,67.96
2022-09-16T09:49:54.337Z,68.37
2022-09-16T09:52:27.855Z,69.01
2022-09-16T09:54:56.988Z,69.83
2022-09-16T09:57:30.483Z,70.68
2022-09-16T10:00:02.503Z,70.63
2022-09-16T10:02:44.948Z,70.77
2022-09-16T10:05:22.202Z,72.67
2022-09-16T10:07:53.794Z,72.97
2022-09-16T10:10:23.975Z,72.41
2022-09-16T10:12:52.871Z,72.51
2022-09-16T10:15:23.278Z,73.67
2022-09-16T10:17:52.254Z,74.11
2022-09-16T10:20:28.426Z,74.47
2022-09-16T10:23:00.236Z,74.05
2022-09-16T10:25:29.192Z,76.03
2022-09-16T10:27:58.384Z,75.29
2022-09-16T10:30:34.202Z,73.69
2022-09-16T10:33:04.948Z,74.49
2022-09-16T10:35:34.642Z,73.37
2022-09-16T10:38:07.722Z,73.67
2022-09-16T10:40:35.742Z,74.79
2022-09-16T10:43:05.509Z,74.27
2022-09-16T10:45:36.820Z,73.54
2022-09-16T10:48:08.802Z,76.05
2022-09-16T10:50:36.832Z,76.86
2022-09-16T10:53:23.184Z,77.49
2022-09-16T10:55:59.058Z,77.78
2022-09-16T10:58:27.193Z,78.47
2022-09-16T11:01:03.995Z,77.92
2022-09-16T11:03:44.693Z,79.13
2022-09-16T11:06:22.901Z,78.99
2022-09-16T11:09:00.016Z,78.77
2022-09-16T11:11:42.391Z,79.97
2022-09-16T11:14:17.532Z,80.24
2022-09-16T11:16:55.819Z,79.49
2022-09-16T11:19:28.628Z,79.40
2022-09-16T11:22:08.196Z,77.36
2022-09-16T11:24:56.410Z,77.84
2022-09-16T11:27:35.444Z,78.19
2022-09-16T11:30:10.694Z,79.44
2022-09-16T11:33:06.190Z,78.11
2022-09-16T11:35:59.476Z,78.35
2022-09-16T11:38:42.291Z,79.19
2022-09-16T11:41:20.778Z,81.47
2022-09-16T11:44:01.105Z,82.66
2022-09-16T11:46:33.618Z,82.27
2022-09-16T11:49:11.491Z,83.60
2022-09-16T11:51:55.871Z,83.13
2022-09-16T11:54:40.466Z,83.44
2022-09-16T11:57:15.150Z,83.31
2022-09-16T11:59:48.478Z,83.38
2022-09-16T12:02:26.657Z,84.72
2022-09-16T12:04:59.234Z,83.46
2022-09-16T12:07:31.292Z,84.26
2022-09-16T12:10:02.111Z,84.55
2022-09-16T12:12:35.254Z,85.51
2022-09-16T12:15:06.326Z,85.12
2022-09-16T12:17:37.014Z,85.29
2022-09-16T12:20:10.793Z,85.77
2022-09-16T12:22:43.480Z,85.36
2022-09-16T12:25:14.915Z,84.95
2022-09-16T12:27:47.778Z,85.06
2022-09-16T12:30:18.829Z,84.91
2022-09-16T12:32:56.507Z,85.03
2022-09-16T12:35:28.766Z,84.26
2022-09-16T12:37:57.626Z,84.53
2022-09-16T12:40:28.139Z,84.65
2022-09-16T12:43:24.995Z,84.78
2022-09-16T12:46:13.665Z,84.24
2022-09-16T12:49:01.967Z,83.88
2022-09-16T12:51:56.639Z,83.74
2022-09-16T12:55:07.124Z,83.62
2022-09-16T12:57:45.898Z,83.94
2022-09-16T13:00:20.745Z,83.03
2022-09-16T13:02:51.975Z,84.29
2022-09-16T13:05:26.292Z,82.95
2022-09-16T13:07:58.341Z,82.00
2022-09-16T13:10:53.963Z,82.79
2022-09-16T13:13:22.105Z,82.76
2022-09-16T13:15:57.907Z,81.91
2022-09-16T13:18:39.751Z,81.57
2022-09-16T13:21:13.366Z,81.62
2022-09-16T13:23:44.377Z,81.21
2022-09-16T13:26:12.485Z,81.48
2022-09-16T13:28:43.363Z,80.77
2022-09-16T13:31:19.847Z,82.72
2022-09-16T13:33:49.777Z,82.30
2022-09-16T13:36:31.873Z,81.72
2022-09-16T13:39:01.884Z,80.74
2022-09-16T13:41:35.791Z,81.85
2022-09-16T13:44:05.505Z,81.02
2022-09-16T13:46:36.781Z,81.33
2022-09-16T13:49:13.252Z,82.26
2022-09-16T13:51:43.198Z,81.45
2022-09-16T13:54:28.058Z,81.58
2022-09-16T13:57:14.939Z,81.18
2022-09-16T14:02:37.856Z,80.75
2022-09-16T14:05:31.063Z,80.79
2022-09-16T14:08:04.908Z,79.88
2022-09-16T14:10:38.556Z,79.84
2022-09-16T14:13:12.450Z,80.00
2022-09-16T14:15:43.256Z,78.52
2022-09-16T14:18:15.378Z,81.15
2022-09-16T14:20:54.101Z,80.94
2022-09-16T14:23:25.242Z,79.88
2022-09-16T14:25:55.563Z,79.75
2022-09-16T14:28:25.487Z,80.70
2022-09-16T14:30:56.021Z,80.25
2022-09-16T14:33:28.696Z,80.08
2022-09-16T14:35:57.383Z,81.13
2022-09-16T14:38:45.420Z,80.29
2022-09-16T14:41:21.078Z,80.86
2022-09-16T14:43:49.177Z,81.16
2022-09-16T14:46:18.441Z,79.67
2022-09-16T14:48:48.055Z,80.47
2022-09-16T14:51:21.349Z,80.74
2022-09-16T14:54:11.807Z,80.46
2022-09-16T14:56:40.575Z,80.16
2022-09-16T14:59:12.419Z,80.75
2022-09-16T15:01:40.917Z,81.11
2022-09-16T15:04:18.558Z,80.38
2022-09-16T15:06:52.106Z,79.78
2022-09-16T15:09:24.512Z,79.62
2022-09-16T15:11:55.431Z,80.15
2022-09-16T15:14:23.937Z,79.44
2022-09-16T15:16:54.498Z,78.97
2022-09-16T15:19:26.384Z,79.67
2022-09-16T15:21:54.658Z,78.93
2022-09-16T15:24:24.910Z,79.38
2022-09-16T15:26:53.809Z,79.66
2022-09-16T15:29:32.042Z,80.25
2022-09-16T15:32:18.213Z,79.84
2022-09-16T15:34:48.120Z,79.61
2022-09-16T15:37:31.276Z,79.63
2022-09-16T15:40:10.651Z,80.77
2022-09-16T15:42:39.019Z,81.17
2022-09-16T15:45:17.323Z,81.05
2022-09-16T15:47:58.069Z,80.19
2022-09-16T15:50:29.680Z,79.72
2022-09-16T15:53:01.194Z,80.71
2022-09-16T15:55:36.491Z,81.17
2022-09-16T15:58:07.941Z,81.12
2022-09-16T16:01:00.868Z,81.18
2022-09-16T16:03:31.650Z,80.70
2022-09-16T16:06:04.906Z,81.28
2022-09-16T16:08:45.859Z,81.06
2022-09-16T16:11:15.566Z,80.95
2022-09-16T16:13:44.280Z,81.08
2022-09-16T16:16:14.394Z,80.64
2022-09-16T16:18:43.626Z,80.94
2022-09-16T16:21:14.565Z,80.27
2022-09-16T16:23:42.682Z,80.58
2022-09-16T16:26:11.619Z,80.55
2022-09-16T16:28:39.659Z,80.70
2022-09-16T16:31:15.883Z,80.38
2022-09-16T16:33:45.703Z,80.90
2022-09-16T16:36:17.019Z,80.83
2022-09-16T16:38:46.441Z,80.70
2022-09-16T16:41:16.876Z,81.17
2022-09-16T16:43:45.164Z,81.42
2022-09-16T16:46:13.515Z,81.80
2022-09-16T16:48:41.726Z,81.52
2022-09-16T16:51:11.839Z,81.50
2022-09-16T16:53:41.369Z,81.35
2022-09-16T16:56:14.855Z,81.09
2022-09-16T16:58:44.053Z,81.51
2022-09-16T17:01:13.982Z,81.79
2022-09-16T17:03:44.867Z,81.45
2022-09-16T17:06:14.235Z,81.34
2022-09-16T17:08:43.764Z,81.31
2022-09-16T17:11:13.245Z,81.43
2022-09-16T17:13:43.144Z,81.68
2022-09-16T17:16:12.476Z,81.39
2022-09-16T17:18:42.996Z,81.42
2022-09-16T17:21:12.521Z,81.31
2022-09-16T17:23:40.979Z,81.39
2022-09-16T17:26:11.460Z,81.08
2022-09-16T17:28:40.955Z,81.16
2022-09-16T17:31:12.432Z,80.97
2022-09-16T17:33:43.833Z,80.79
2022-09-16T17:36:14.089Z,80.52
2022-09-16T17:38:42.301Z,81.37
2022-09-16T17:41:13.093Z,81.67
2022-09-16T17:43:44.494Z,81.81
2022-09-16T17:46:15.946Z,81.27
2022-09-16T17:48:44.242Z,81.30
2022-09-16T17:51:12.527Z,81.84
2022-09-16T17:53:41.223Z,81.56
2022-09-16T17:56:12.921Z,81.95
2022-09-16T17:58:42.543Z,82.55
2022-09-16T18:01:12.218Z,82.74
2022-09-16T18:03:41.606Z,82.70
2022-09-16T18:06:11.308Z,82.61
2022-09-16T18:08:40.618Z,82.35
2022-09-16T18:11:09.712Z,82.10
2022-09-16T18:13:39.730Z,82.51
2022-09-16T18:16:11.281Z,82.27
2022-09-16T18:18:41.052Z,82.33
2022-09-16T18:21:10.604Z,82.54
2022-09-16T18:23:38.631Z,82.44
2022-09-16T18:26:07.793Z,82.83
2022-09-16T18:28:58.005Z,82.54
2022-09-16T18:31:26.523Z,82.48
2022-09-16T18:33:55.382Z,82.84
2022-09-16T18:36:25.518Z,82.95
2022-09-16T18:38:54.266Z,83.23
2022-09-16T18:41:24.297Z,83.12
2022-09-16T18:43:54.460Z,83.06
2022-09-16T18:46:26.662Z,82.63
2022-09-16T18:48:56.942Z,82.42
2022-09-16T18:51:26.707Z,82.49
2022-09-16T18:53:57.884Z,82.72
2022-09-16T18:56:26.763Z,82.73
2022-09-16T18:59:20.023Z,82.95
2022-09-16T19:01:48.644Z,83.06
2022-09-16T19:04:19.954Z,83.23
2022-09-16T19:06:49.854Z,82.79
2022-09-16T19:09:20.181Z,83.10
2022-09-16T19:11:48.316Z,82.37
2022-09-16T19:14:16.682Z,82.30
2022-09-16T19:16:46.238Z,82.15
2022-09-16T19:19:15.438Z,82.74
2022-09-16T19:21:45.284Z,82.73
2022-09-16T19:24:15.023Z,82.77
2022-09-16T19:26:44.054Z,82.72
2022-09-16T19:29:13.241Z,82.55
2022-09-16T19:31:42.415Z,82.43
2022-09-16T19:34:11.070Z,82.67
2022-09-16T19:36:39.853Z,82.76
2022-09-16T19:39:10.077Z,82.80
2022-09-16T19:41:39.524Z,82.84
2022-09-16T19:44:10.791Z,83.02
2022-09-16T19:46:40.195Z,83.24
2022-09-16T19:49:08.762Z,83.31
2022-09-16T19:51:37.758Z,84.14
2022-09-16T19:54:06.143Z,84.29
2022-09-16T19:56:35.546Z,84.35
2022-09-16T19:59:03.618Z,83.93
2022-09-16T20:01:33.437Z,84.02
2022-09-16T20:04:03.670Z,84.14
2022-09-16T20:06:36.136Z,83.70
2022-09-16T20:09:06.717Z,83.77
2022-09-16T20:11:38.077Z,83.76
2022-09-16T20:14:08.419Z,83.65
2022-09-16T20:16:38.901Z,83.39
2022-09-16T20:19:08.854Z,83.85
2022-09-16T20:21:37.940Z,84.37
2022-09-16T20:24:07.882Z,84.92
2022-09-16T20:26:37.511Z,85.08
2022-09-16T20:29:05.659Z,84.89
2022-09-16T20:31:35.440Z,84.77
2022-09-16T20:34:03.816Z,85.28
2022-09-16T20:36:32.971Z,84.83
2022-09-16T20:39:01.269Z,85.08
2022-09-16T20:41:30.971Z,84.80
2022-09-16T20:44:00.825Z,84.77
2022-09-16T20:46:31.144Z,84.85
2022-09-16T20:49:00.729Z,85.08
2022-09-16T20:51:31.253Z,85.41
2022-09-16T20:54:06.314Z,85.19
2022-09-16T20:56:38.282Z,85.35
2022-09-16T20:59:08.736Z,85.53
2022-09-16T21:01:38.090Z,85.46
2022-09-16T21:04:07.329Z,85.86
2022-09-16T21:06:36.410Z,86.23
2022-09-16T21:09:06.222Z,86.42
2022-09-16T21:11:35.372Z,87.30
2022-09-16T21:14:06.397Z,87.83
2022-09-16T21:16:37.315Z,88.56
2022-09-16T21:19:09.297Z,88.81
2022-09-16T21:21:39.360Z,89.52
2022-09-16T21:24:08.595Z,89.43
2022-09-16T21:26:38.311Z,90.00
2022-09-16T21:29:09.902Z,89.51
2022-09-16T21:31:40.961Z,89.51
2022-09-16T21:34:12.910Z,88.90
2022-09-16T21:36:40.996Z,88.71
2022-09-16T21:39:09.209Z,88.12
2022-09-16T21:41:37.535Z,87.82
2022-09-16T21:44:05.833Z,87.66
2022-09-16T21:46:36.968Z,87.52
2022-09-16T21:49:06.632Z,86.99
2022-09-16T21:51:38.293Z,86.58
2022-09-16T21:54:07.483Z,87.15
2022-09-16T21:56:37.763Z,86.79
2022-09-16T21:59:06.161Z,86.51
2022-09-16T22:01:34.396Z,86.40
2022-09-16T22:04:04.714Z,86.51
2022-09-16T22:06:34.911Z,86.25
2022-09-16T22:09:04.394Z,85.94
2022-09-16T22:11:33.507Z,85.54
2022-09-16T22:14:02.399Z,85.23
2022-09-16T22:16:31.652Z,84.85
2022-09-16T22:19:01.727Z,85.23
2022-09-16T22:21:33.228Z,84.94
2022-09-16T22:24:03.217Z,84.95
2022-09-16T22:26:31.931Z,84.98
2022-09-16T22:29:00.704Z,85.07
2022-09-16T22:31:30.227Z,85.09
2022-09-16T22:34:00.679Z,85.47
2022-09-16T22:36:30.293Z,85.33
2022-09-16T22:39:00.770Z,85.03
2022-09-16T22:41:30.459Z,84.75
2022-09-16T22:43:58.726Z,84.48
2022-09-16T22:46:29.084Z,84.51
2022-09-16T22:48:58.376Z,84.38
2022-09-16T22:51:26.928Z,84.94
2022-09-16T22:53:55.193Z,85.09
2022-09-16T22:56:25.091Z,84.88
2022-09-16T22:58:55.282Z,84.52
2022-09-16T23:01:25.544Z,84.68
2022-09-16T23:03:55.729Z,84.43
2022-09-16T23:06:24.823Z,84.05
2022-09-16T23:08:53.310Z,83.79
2022-09-16T23:11:23.691Z,84.14
2022-09-16T23:13:52.868Z,84.02
2022-09-16T23:16:24.414Z,84.21
2022-09-16T23:18:52.438Z,83.94
2022-09-16T23:21:22.293Z,83.83
2022-09-16T23:23:52.131Z,83.56
2022-09-16T23:26:22.041Z,83.42
2022-09-16T23:28:52.644Z,83.58
2022-09-16T23:31:23.650Z,83.73
2022-09-16T23:33:51.809Z,84.17
2022-09-16T23:36:20.261Z,84.39
2022-09-16T23:38:49.057Z,84.11
2022-09-16T23:41:19.850Z,84.12
2022-09-16T23:43:48.930Z,84.18
2022-09-16T23:46:19.203Z,83.66
2022-09-16T23:48:51.004Z,83.74
2022-09-16T23:51:22.611Z,83.84
2022-09-16T23:53:54.192Z,83.75
2022-09-16T23:56:22.308Z,83.57
2022-09-16T23:58:50.949Z,84.11
